createdAt,value
2019-01-15T00:01:37.895Z,99.90
2019-01-15T00:04:06.959Z,99.90
2019-01-15T00:06:35.787Z,99.90
2019-01-15T00:09:07.769Z,99.90
2019-01-15T00:11:36.590Z,99.90
2019-01-15T00:14:05.519Z,99.90
2019-01-15T00:16:34.338Z,99.90
2019-01-15T00:19:03.234Z,99.90
2019-01-15T00:21:32.022Z,99.90
2019-01-15T00:24:00.892Z,99.90
2019-01-15T00:26:30.232Z,99.90
2019-01-15T00:28:59.287Z,99.90
2019-01-15T00:31:28.183Z,99.90
2019-01-15T00:33:56.988Z,99.90
2019-01-15T00:36:25.784Z,99.90
2019-01-15T00:38:54.912Z,99.90
2019-01-15T00:41:23.736Z,99.90
2019-01-15T00:43:52.596Z,99.90
2019-01-15T00:46:21.811Z,99.90
2019-01-15T00:48:51.610Z,99.90
2019-01-15T00:51:20.397Z,99.90
2019-01-15T00:53:49.222Z,99.90
2019-01-15T00:56:18.087Z,99.90
2019-01-15T00:58:46.906Z,99.90
2019-01-15T01:01:16.062Z,99.90
2019-01-15T01:03:44.855Z,99.90
2019-01-15T01:06:13.801Z,99.90
2019-01-15T01:08:42.662Z,99.90
2019-01-15T01:11:11.475Z,99.90
2019-01-15T01:13:40.410Z,99.90
2019-01-15T01:16:09.480Z,99.90
2019-01-15T01:18:38.423Z,99.90
2019-01-15T01:21:07.435Z,99.90
2019-01-15T01:23:36.411Z,99.90
2019-01-15T01:26:05.330Z,99.90
2019-01-15T01:28:34.123Z,99.90
2019-01-15T01:31:02.994Z,99.90
2019-01-15T01:33:31.875Z,99.90
2019-01-15T01:36:00.667Z,99.90
2019-01-15T01:38:29.491Z,99.90
2019-01-15T01:40:58.341Z,99.90
2019-01-15T01:43:27.455Z,99.90
2019-01-15T01:45:56.287Z,99.90
2019-01-15T01:48:25.090Z,99.90
2019-01-15T01:50:53.978Z,99.90
2019-01-15T01:53:22.772Z,99.90
2019-01-15T01:55:51.584Z,99.90
2019-01-15T01:58:20.403Z,99.90
2019-01-15T02:00:49.254Z,99.90
2019-01-15T02:03:18.047Z,99.90
2019-01-15T02:05:46.919Z,99.90
2019-01-15T02:08:15.775Z,99.90
2019-01-15T02:10:44.710Z,99.90
2019-01-15T02:13:13.692Z,99.90
2019-01-15T02:15:42.502Z,99.90
2019-01-15T02:18:11.402Z,99.90
2019-01-15T02:20:40.260Z,99.90
2019-01-15T02:23:09.163Z,99.90
2019-01-15T02:25:37.999Z,99.90
2019-01-15T02:28:06.857Z,99.90
2019-01-15T02:30:35.801Z,99.90
2019-01-15T02:33:05.025Z,99.90
2019-01-15T02:35:33.948Z,99.90
2019-01-15T02:38:02.749Z,99.90
2019-01-15T02:40:31.776Z,99.90
2019-01-15T02:43:00.588Z,99.90
2019-01-15T02:45:29.458Z,99.90
2019-01-15T02:47:58.476Z,99.90
2019-01-15T02:50:27.500Z,99.90
2019-01-15T02:52:56.543Z,99.90
2019-01-15T02:55:25.355Z,99.90
2019-01-15T02:57:54.213Z,99.90
2019-01-15T03:00:28.877Z,99.90
2019-01-15T03:02:57.751Z,99.90
2019-01-15T03:05:26.551Z,99.90
2019-01-15T03:07:55.460Z,99.90
2019-01-15T03:10:24.409Z,99.90
2019-01-15T03:12:56.356Z,99.90
2019-01-15T03:15:24.785Z,99.90
2019-01-15T03:17:54.016Z,99.90
2019-01-15T03:20:22.894Z,99.90
2019-01-15T03:22:51.864Z,99.90
2019-01-15T03:25:21.062Z,99.90
2019-01-15T03:27:50.023Z,99.90
2019-01-15T03:30:25.506Z,99.90
2019-01-15T03:32:54.447Z,99.90
2019-01-15T03:35:23.501Z,99.90
2019-01-15T03:37:52.426Z,99.90
2019-01-15T03:40:25.850Z,99.90
2019-01-15T03:43:02.994Z,99.90
2019-01-15T03:45:25.658Z,99.90
2019-01-15T03:47:54.642Z,99.90
2019-01-15T03:50:23.516Z,99.90
2019-01-15T03:52:52.386Z,99.90
2019-01-15T03:55:21.350Z,99.90
2019-01-15T03:57:50.515Z,99.90
2019-01-15T04:00:21.473Z,99.90
2019-01-15T04:02:50.508Z,99.90
2019-01-15T04:05:19.774Z,99.90
2019-01-15T04:07:52.362Z,99.90
2019-01-15T04:10:21.232Z,99.90
2019-01-15T04:12:50.379Z,99.90
2019-01-15T04:15:19.436Z,99.90
2019-01-15T04:17:48.207Z,99.90
2019-01-15T04:20:17.183Z,99.90
2019-01-15T04:22:46.399Z,99.90
2019-01-15T04:25:15.376Z,99.90
2019-01-15T04:27:44.316Z,99.90
2019-01-15T04:30:16.427Z,99.90
2019-01-15T04:32:45.368Z,99.90
2019-01-15T04:37:42.708Z,99.90
2019-01-15T04:40:14.508Z,99.90
2019-01-15T04:42:43.531Z,99.90
2019-01-15T04:45:14.374Z,99.90
2019-01-15T04:47:43.359Z,99.90
2019-01-15T04:50:12.622Z,99.90
2019-01-15T04:52:43.146Z,99.90
2019-01-15T04:55:12.277Z,99.90
2019-01-15T04:57:41.207Z,99.90
2019-01-15T05:00:13.608Z,99.90
2019-01-15T05:02:42.853Z,99.90
2019-01-15T05:05:12.266Z,99.90
2019-01-15T05:07:41.095Z,99.90
2019-01-15T05:10:11.631Z,99.90
2019-01-15T05:12:40.517Z,99.90
2019-01-15T05:15:12.981Z,99.90
2019-01-15T05:17:42.064Z,99.90
2019-01-15T05:20:12.646Z,99.90
2019-01-15T05:22:41.918Z,99.90
2019-01-15T05:25:13.734Z,99.90
2019-01-15T05:27:42.703Z,99.90
2019-01-15T05:30:17.948Z,99.90
2019-01-15T05:32:47.356Z,99.90
2019-01-15T05:35:16.308Z,99.90
2019-01-15T05:37:45.308Z,99.90
2019-01-15T05:40:14.922Z,99.90
2019-01-15T05:42:44.000Z,99.90
2019-01-15T05:45:17.887Z,99.90
2019-01-15T05:47:47.248Z,99.90
2019-01-15T05:50:19.934Z,99.90
2019-01-15T05:52:48.744Z,99.90
2019-01-15T05:55:17.536Z,99.90
2019-01-15T05:57:47.030Z,99.90
2019-01-15T06:00:16.615Z,99.90
2019-01-15T06:02:45.824Z,99.90
2019-01-15T06:05:14.875Z,99.90
2019-01-15T06:07:44.111Z,99.90
2019-01-15T06:10:13.273Z,99.90
2019-01-15T06:12:42.068Z,99.90
2019-01-15T06:15:11.686Z,99.90
2019-01-15T06:17:40.531Z,99.90
2019-01-15T06:20:12.175Z,99.90
2019-01-15T06:22:41.029Z,99.90
2019-01-15T06:25:10.421Z,99.90
2019-01-15T06:27:39.274Z,99.90
2019-01-15T06:30:10.827Z,99.90
2019-01-15T06:32:39.801Z,99.90
2019-01-15T06:35:09.065Z,99.90
2019-01-15T06:37:38.021Z,99.90
2019-01-15T06:40:08.708Z,99.90
2019-01-15T06:42:37.698Z,99.90
2019-01-15T06:45:10.308Z,99.90
2019-01-15T06:47:39.307Z,99.90
2019-01-15T06:50:09.115Z,99.90
2019-01-15T06:52:38.367Z,99.90
2019-01-15T06:55:09.212Z,99.90
2019-01-15T06:57:38.187Z,99.90
2019-01-15T07:00:12.937Z,99.90
2019-01-15T07:02:41.799Z,99.90
2019-01-15T07:05:10.747Z,99.90
2019-01-15T07:07:39.767Z,99.90
2019-01-15T07:10:11.120Z,99.90
2019-01-15T07:12:40.047Z,99.90
2019-01-15T07:15:09.111Z,99.90
2019-01-15T07:17:38.002Z,99.90
2019-01-15T07:20:07.925Z,99.90
2019-01-15T07:22:36.815Z,99.90
2019-01-15T07:25:07.339Z,99.90
2019-01-15T07:27:36.533Z,99.90
2019-01-15T07:30:08.699Z,99.90
2019-01-15T07:32:39.594Z,99.90
2019-01-15T07:35:08.715Z,99.90
2019-01-15T07:37:37.623Z,99.90
2019-01-15T07:40:07.554Z,99.90
2019-01-15T07:42:36.412Z,99.90
2019-01-15T07:45:07.765Z,99.90
2019-01-15T07:47:36.729Z,99.90
2019-01-15T07:50:08.042Z,99.90
2019-01-15T07:52:36.951Z,99.90
2019-01-15T07:55:07.009Z,99.90
2019-01-15T07:57:35.941Z,99.90
2019-01-15T08:00:07.300Z,99.90
2019-01-15T08:02:36.252Z,99.90
2019-01-15T08:05:05.708Z,99.90
2019-01-15T08:07:35.035Z,99.90
2019-01-15T08:10:04.741Z,99.90
2019-01-15T08:12:33.539Z,99.90
2019-01-15T08:15:02.745Z,99.90
2019-01-15T08:17:31.856Z,99.90
2019-01-15T08:20:00.743Z,99.90
2019-01-15T08:22:29.925Z,99.90
2019-01-15T08:24:58.734Z,99.90
2019-01-15T08:27:27.680Z,99.90
2019-01-15T08:29:56.529Z,99.90
2019-01-15T08:32:25.401Z,99.90
2019-01-15T08:35:17.223Z,99.90
2019-01-15T08:37:46.242Z,99.90
2019-01-15T08:40:16.113Z,99.90
2019-01-15T08:42:45.111Z,99.90
2019-01-15T08:45:14.544Z,99.90
2019-01-15T08:47:46.511Z,99.90
2019-01-15T08:50:17.374Z,99.90
2019-01-15T08:52:46.400Z,99.90
2019-01-15T08:55:16.530Z,99.90
2019-01-15T08:57:45.527Z,99.90
2019-01-15T09:00:14.716Z,99.90
2019-01-15T09:02:43.712Z,99.90
2019-01-15T09:05:12.668Z,99.90
2019-01-15T09:07:41.597Z,99.90
2019-01-15T09:10:11.858Z,99.90
2019-01-15T09:12:41.006Z,99.90
2019-01-15T09:15:11.167Z,99.90
2019-01-15T09:17:40.568Z,99.90
2019-01-15T09:20:12.692Z,99.90
2019-01-15T09:22:42.108Z,99.90
2019-01-15T09:25:11.171Z,99.90
2019-01-15T09:27:40.299Z,99.90
2019-01-15T09:30:20.563Z,99.90
2019-01-15T09:32:49.533Z,99.90
2019-01-15T09:35:19.052Z,99.90
2019-01-15T09:37:49.708Z,99.90
2019-01-15T09:40:20.461Z,99.90
2019-01-15T09:42:49.575Z,99.90
2019-01-15T09:45:20.507Z,99.90
2019-01-15T09:48:03.617Z,99.90
2019-01-15T09:50:32.585Z,99.90
2019-01-15T09:53:02.740Z,99.90
2019-01-15T09:55:32.244Z,99.90
2019-01-15T09:58:01.104Z,99.90
2019-01-15T10:00:30.096Z,99.90
2019-01-15T10:02:59.626Z,99.90
2019-01-15T10:05:28.439Z,99.90
2019-01-15T10:07:57.515Z,99.90
2019-01-15T10:10:26.491Z,99.90
2019-01-15T10:12:55.380Z,99.90
2019-01-15T10:15:24.458Z,99.90
2019-01-15T10:17:53.371Z,99.90
2019-01-15T10:20:22.228Z,99.90
2019-01-15T10:22:51.241Z,99.90
2019-01-15T10:25:25.335Z,99.90
2019-01-15T10:27:55.098Z,99.90
2019-01-15T10:31:08.555Z,99.90
2019-01-15T10:33:44.776Z,99.90
2019-01-15T10:36:12.267Z,99.10
2019-01-15T10:38:41.255Z,98.60
2019-01-15T10:41:10.564Z,98.30
2019-01-15T10:43:39.992Z,97.20
2019-01-15T10:46:09.056Z,96.80
2019-01-15T10:48:38.006Z,96.10
2019-01-15T10:51:06.957Z,95.30
2019-01-15T10:53:35.856Z,94.50
2019-01-15T10:56:05.063Z,93.70
2019-01-15T10:58:34.026Z,92.60
2019-01-15T11:01:02.985Z,92.70
2019-01-15T11:03:32.058Z,91.70
2019-01-15T11:06:02.316Z,89.00
2019-01-15T11:08:31.113Z,88.10
2019-01-15T11:11:00.004Z,89.80
2019-01-15T11:13:29.465Z,87.00
2019-01-15T11:15:58.380Z,86.80
2019-01-15T11:18:27.227Z,85.80
2019-01-15T11:20:56.751Z,84.90
2019-01-15T11:23:25.559Z,85.00
2019-01-15T11:25:55.129Z,84.50
2019-01-15T11:28:24.125Z,83.30
2019-01-15T11:30:52.924Z,83.30
2019-01-15T11:33:22.011Z,80.30
2019-01-15T11:35:51.740Z,81.10
2019-01-15T11:38:20.696Z,80.80
2019-01-15T11:40:49.599Z,80.30
2019-01-15T11:43:18.804Z,80.50
2019-01-15T11:45:47.640Z,81.50
2019-01-15T11:48:16.592Z,83.80
2019-01-15T11:50:45.896Z,80.40
2019-01-15T11:53:14.799Z,82.60
2019-01-15T11:55:43.706Z,82.40
2019-01-15T11:58:13.295Z,81.70
2019-01-15T12:01:04.322Z,82.70
2019-01-15T12:03:51.750Z,83.20
2019-01-15T12:06:32.252Z,81.40
2019-01-15T12:09:19.183Z,82.90
2019-01-15T12:12:19.845Z,82.90
2019-01-15T12:15:11.011Z,81.90
2019-01-15T12:18:10.416Z,84.90
2019-01-15T12:20:58.462Z,85.40
2019-01-15T12:23:45.930Z,85.30
2019-01-15T12:26:36.721Z,84.90
2019-01-15T12:29:19.684Z,84.50
2019-01-15T12:32:07.569Z,86.50
2019-01-15T12:34:54.796Z,85.20
2019-01-15T12:37:54.926Z,84.60
2019-01-15T12:40:45.926Z,84.40
2019-01-15T12:43:34.591Z,85.20
2019-01-15T12:46:25.921Z,84.10
2019-01-15T12:49:12.933Z,82.80
2019-01-15T12:52:01.011Z,83.20
2019-01-15T12:55:01.389Z,82.40
2019-01-15T12:57:52.110Z,84.00
2019-01-15T13:00:33.597Z,80.60
2019-01-15T13:03:12.552Z,80.30
2019-01-15T13:06:09.168Z,80.20
2019-01-15T13:09:12.255Z,81.50
2019-01-15T13:12:09.266Z,82.20
2019-01-15T13:14:53.644Z,81.20
2019-01-15T13:17:41.844Z,83.00
2019-01-15T13:20:28.270Z,84.20
2019-01-15T13:23:19.587Z,85.20
2019-01-15T13:26:06.223Z,86.20
2019-01-15T13:28:57.152Z,87.00
2019-01-15T13:32:03.320Z,86.80
2019-01-15T13:34:51.341Z,88.50
2019-01-15T13:37:49.482Z,88.10
2019-01-15T13:40:36.229Z,88.30
2019-01-15T13:43:24.052Z,88.40
2019-01-15T13:46:27.081Z,89.80
2019-01-15T13:49:15.046Z,89.50
2019-01-15T13:52:12.431Z,89.70
2019-01-15T13:55:04.071Z,90.30
2019-01-15T13:58:04.407Z,90.20
2019-01-15T14:00:53.548Z,90.50
2019-01-15T14:03:47.668Z,90.80
2019-01-15T14:06:35.659Z,90.60
2019-01-15T14:09:20.321Z,90.80
2019-01-15T14:12:02.031Z,91.10
2019-01-15T14:14:59.113Z,91.20
2019-01-15T14:17:56.265Z,91.20
2019-01-15T14:20:43.456Z,91.20
2019-01-15T14:23:20.402Z,91.10
2019-01-15T14:26:20.531Z,91.30
2019-01-15T14:29:18.747Z,91.60
2019-01-15T14:32:06.853Z,92.10
2019-01-15T14:34:53.386Z,92.10
2019-01-15T14:37:30.592Z,92.60
2019-01-15T14:40:17.095Z,92.70
2019-01-15T14:43:05.913Z,92.60
2019-01-15T14:46:05.741Z,92.90
2019-01-15T14:48:58.071Z,93.30
2019-01-15T14:51:44.679Z,93.50
2019-01-15T14:54:38.991Z,93.90
2019-01-15T14:57:26.859Z,94.10
2019-01-15T15:00:12.783Z,94.30
2019-01-15T15:02:59.731Z,95.60
2019-01-15T15:05:52.301Z,96.10
2019-01-15T15:08:46.940Z,96.40
2019-01-15T15:11:23.363Z,97.10
2019-01-15T15:14:13.725Z,98.00
2019-01-15T15:17:13.989Z,97.40
2019-01-15T15:20:01.279Z,98.00
2019-01-15T15:22:52.620Z,98.80
2019-01-15T15:25:40.700Z,98.50
2019-01-15T15:28:47.149Z,98.90
2019-01-15T15:31:42.579Z,99.40
2019-01-15T15:34:36.399Z,99.50
2019-01-15T15:37:36.295Z,99.40
2019-01-15T15:40:27.727Z,99.90
2019-01-15T15:43:24.511Z,99.90
2019-01-15T15:46:11.148Z,99.90
2019-01-15T15:48:54.371Z,99.90
2019-01-15T15:51:48.715Z,99.90
2019-01-15T15:54:36.641Z,99.90
2019-01-15T15:57:23.470Z,99.90
2019-01-15T16:00:26.479Z,99.90
2019-01-15T16:03:05.012Z,99.90
2019-01-15T16:05:51.992Z,99.90
2019-01-15T16:08:43.968Z,99.90
2019-01-15T16:11:31.089Z,99.90
2019-01-15T16:14:17.807Z,99.90
2019-01-15T16:17:03.756Z,99.90
2019-01-15T16:19:58.178Z,99.90
2019-01-15T16:22:42.483Z,99.90
2019-01-15T16:25:30.370Z,99.90
2019-01-15T16:28:17.076Z,99.90
2019-01-15T16:31:17.403Z,99.90
2019-01-15T16:34:00.417Z,99.90
2019-01-15T16:36:49.887Z,99.90
2019-01-15T16:39:45.766Z,99.90
2019-01-15T16:42:28.978Z,99.90
2019-01-15T16:45:16.302Z,99.90
2019-01-15T16:48:02.841Z,99.90
2019-01-15T16:50:40.581Z,99.90
2019-01-15T16:53:20.697Z,99.90
2019-01-15T16:56:27.052Z,99.90
2019-01-15T16:59:15.088Z,99.90
2019-01-15T17:02:02.202Z,99.90
2019-01-15T17:04:56.757Z,99.90
2019-01-15T17:08:00.052Z,99.90
2019-01-15T17:10:45.730Z,99.90
2019-01-15T17:13:43.403Z,99.90
2019-01-15T17:16:40.133Z,99.60
2019-01-15T17:19:37.231Z,99.40
2019-01-15T17:22:24.055Z,99.40
2019-01-15T17:25:10.325Z,99.70
2019-01-15T17:27:57.947Z,99.90
2019-01-15T17:30:42.075Z,99.90
2019-01-15T17:33:38.651Z,99.90
2019-01-15T17:36:18.853Z,99.90
2019-01-15T17:39:06.746Z,99.90
2019-01-15T17:41:57.609Z,99.90
2019-01-15T17:44:40.303Z,99.90
2019-01-15T17:47:28.412Z,99.90
2019-01-15T17:50:26.233Z,99.90
2019-01-15T17:53:08.190Z,99.90
2019-01-15T17:56:04.851Z,99.90
2019-01-15T17:58:55.799Z,99.90
2019-01-15T18:01:49.752Z,99.90
2019-01-15T18:04:27.832Z,99.90
2019-01-15T18:07:11.688Z,99.80
2019-01-15T18:10:14.996Z,99.90
2019-01-15T18:13:11.113Z,99.90
2019-01-15T18:15:58.968Z,99.90
2019-01-15T18:18:58.038Z,99.90
2019-01-15T18:21:44.495Z,99.90
2019-01-15T18:24:25.560Z,99.90
2019-01-15T18:27:03.678Z,99.90
2019-01-15T18:29:39.362Z,99.90
2019-01-15T18:32:27.380Z,99.90
2019-01-15T18:35:07.399Z,99.90
2019-01-15T18:37:58.481Z,99.90
2019-01-15T18:40:55.690Z,99.90
2019-01-15T18:43:40.374Z,99.90
2019-01-15T18:46:17.611Z,99.90
2019-01-15T18:49:05.733Z,99.90
2019-01-15T18:51:59.900Z,99.90
2019-01-15T18:54:51.301Z,99.90
2019-01-15T18:57:51.405Z,99.90
2019-01-15T19:00:33.800Z,99.90
2019-01-15T19:03:20.116Z,99.90
2019-01-15T19:06:30.456Z,99.90
2019-01-15T19:09:24.220Z,99.90
2019-01-15T19:12:14.946Z,99.90
2019-01-15T19:15:01.660Z,99.90
2019-01-15T19:17:48.575Z,99.90
2019-01-15T19:20:35.367Z,99.90
2019-01-15T19:23:32.706Z,99.90
2019-01-15T19:26:19.822Z,99.90
2019-01-15T19:29:10.363Z,99.90
2019-01-15T19:32:05.884Z,99.90
2019-01-15T19:34:53.843Z,99.90
2019-01-15T19:37:24.840Z,99.90
2019-01-15T19:40:03.290Z,99.90
2019-01-15T19:42:45.017Z,99.90
2019-01-15T19:45:32.014Z,99.90
2019-01-15T19:48:33.251Z,99.90
2019-01-15T19:51:27.636Z,99.90
2019-01-15T19:54:18.806Z,99.90
2019-01-15T19:56:56.988Z,99.90
2019-01-15T19:59:39.261Z,99.90
2019-01-15T20:02:33.172Z,99.90
2019-01-15T20:05:21.962Z,99.90
2019-01-15T20:08:13.070Z,99.90
2019-01-15T20:10:59.737Z,99.90
2019-01-15T20:13:36.295Z,99.90
2019-01-15T20:16:30.379Z,99.90
2019-01-15T20:19:17.327Z,99.90
2019-01-15T20:22:13.816Z,99.90
2019-01-15T20:24:53.585Z,99.90
2019-01-15T20:27:34.223Z,99.90
2019-01-15T20:30:21.175Z,99.90
2019-01-15T20:33:15.503Z,99.90
2019-01-15T20:36:02.159Z,99.90
2019-01-15T20:38:40.787Z,99.90
2019-01-15T20:41:25.369Z,99.90
2019-01-15T20:44:24.268Z,99.90
2019-01-15T20:47:10.661Z,99.90
2019-01-15T20:50:07.654Z,99.90
2019-01-15T20:52:55.867Z,99.90
2019-01-15T20:55:59.097Z,99.90
2019-01-15T20:58:41.247Z,99.90
2019-01-15T21:01:28.188Z,99.90
2019-01-15T21:04:11.388Z,99.90
2019-01-15T21:06:58.026Z,99.90
2019-01-15T21:09:45.040Z,99.90
2019-01-15T21:12:32.211Z,99.90
2019-01-15T21:18:15.977Z,99.90
2019-01-15T21:21:06.784Z,99.90
2019-01-15T21:23:56.672Z,99.90
2019-01-15T21:26:47.671Z,99.90
2019-01-15T21:29:44.618Z,99.90
2019-01-15T21:32:32.629Z,99.90
2019-01-15T21:35:27.849Z,99.90
2019-01-15T21:38:19.812Z,99.90
2019-01-15T21:41:10.770Z,99.90
2019-01-15T21:43:59.752Z,99.90
2019-01-15T21:46:46.172Z,99.90
2019-01-15T21:49:49.254Z,99.90
2019-01-15T21:52:36.307Z,99.90
2019-01-15T21:55:36.408Z,99.90
2019-01-15T21:58:27.831Z,99.90
2019-01-15T22:01:18.816Z,99.90
2019-01-15T22:04:16.367Z,99.90
2019-01-15T22:07:04.553Z,99.90
2019-01-15T22:09:55.402Z,99.90
2019-01-15T22:12:49.549Z,99.90
2019-01-15T22:15:43.823Z,99.90
2019-01-15T22:18:20.862Z,99.90
2019-01-15T22:21:20.651Z,99.90
2019-01-15T22:24:09.269Z,99.90
2019-01-15T22:26:55.592Z,99.90
2019-01-15T22:29:51.272Z,99.90
2019-01-15T22:32:34.083Z,99.90
2019-01-15T22:35:15.687Z,99.90
2019-01-15T22:38:09.592Z,99.90
2019-01-15T22:40:56.219Z,99.90
2019-01-15T22:43:42.996Z,99.90
2019-01-15T22:46:30.910Z,99.90
2019-01-15T22:49:17.744Z,99.90
2019-01-15T22:52:06.974Z,99.90
2019-01-15T22:54:54.906Z,99.90
2019-01-15T22:57:44.785Z,99.90
2019-01-15T23:00:40.627Z,99.90
2019-01-15T23:03:18.271Z,99.90
2019-01-15T23:06:12.511Z,99.90
2019-01-15T23:09:04.120Z,99.90
2019-01-15T23:11:45.142Z,99.90
2019-01-15T23:14:31.734Z,99.90
2019-01-15T23:17:19.654Z,99.90
2019-01-15T23:20:19.795Z,99.90
2019-01-15T23:23:16.611Z,99.90
2019-01-15T23:26:03.542Z,99.90
2019-01-15T23:28:45.016Z,99.90
2019-01-15T23:31:27.920Z,99.90
2019-01-15T23:34:15.044Z,99.90
2019-01-15T23:36:55.319Z,99.90
2019-01-15T23:39:49.211Z,99.90
2019-01-15T23:42:41.744Z,99.90
2019-01-15T23:45:23.016Z,99.90
2019-01-15T23:48:09.608Z,99.90
2019-01-15T23:50:46.606Z,99.90
2019-01-15T23:53:37.492Z,99.90
2019-01-15T23:56:24.040Z,99.90
2019-01-15T23:59:01.882Z,99.90
